Time;durP1;ratioP1;P1;durP2;ratioP2;P2;SDS_P1;SDS_P2;PMS_P1;PMS_P2;Temp;Humidity;BMP_temperature;BMP_pressure;BME280_temperature;BME280_humidity;BME280_pressure;Samples;Min_cycle;Max_cycle;Signal;HPM_P1;HPM_P2
2023/09/11 00:00:08;;;;;;;1.70;0.90;;;;;;;15.67;59.30;93908.47;522221;28;891;-47
2023/09/11 00:00:23;;;;;;;1.60;0.90;;;;;;;15.62;59.52;93901.09;522120;28;802;-48
2023/09/11 00:00:39;;;;;;;1.15;1.05;;;;;;;15.64;59.42;93910.34;522196;28;1105;-46
2023/09/11 00:00:54;;;;;;;1.20;1.10;;;;;;;15.64;59.56;93915.19;522205;28;798;-47
2023/09/11 00:01:09;;;;;;;1.03;0.97;;;;;;;15.61;59.50;93905.22;522232;28;887;-46
2023/09/11 00:01:25;;;;;;;2.13;1.20;;;;;;;15.61;59.53;93905.94;522180;28;847;-46
2023/09/11 00:01:40;;;;;;;2.40;1.20;;;;;;;15.59;59.60;93902.97;522133;28;869;-48
2023/09/11 00:01:55;;;;;;;1.20;1.03;;;;;;;15.58;59.62;93907.06;522208;28;1573;-47
2023/09/11 00:02:11;;;;;;;1.30;1.20;;;;;;;15.49;59.74;93898.63;522277;28;799;-48
2023/09/11 00:02:26;;;;;;;1.40;1.20;;;;;;;15.56;59.69;93908.94;522126;28;760;-47
2023/09/11 00:02:42;;;;;;;1.83;1.30;;;;;;;15.51;59.73;93904.34;522236;28;843;-47
2023/09/11 00:02:57;;;;;;;1.42;1.23;;;;;;;15.55;59.77;93904.72;522257;28;1550;-46
2023/09/11 00:03:12;;;;;;;1.17;1.10;;;;;;;15.54;59.91;93912.31;522134;28;868;-47
2023/09/11 00:03:28;;;;;;;1.17;1.07;;;;;;;15.54;59.92;93914.34;522146;28;778;-47
2023/09/11 00:03:43;;;;;;;2.08;1.05;;;;;;;15.50;59.99;93906.41;522113;28;868;-47
2023/09/11 00:03:59;;;;;;;2.17;1.03;;;;;;;15.49;60.12;93916.06;522237;28;825;-47
2023/09/11 00:04:14;;;;;;;1.90;1.08;;;;;;;15.47;60.08;93901.97;522177;28;813;-46
2023/09/11 00:04:29;;;;;;;2.00;1.10;;;;;;;15.46;60.06;93908.88;522196;28;895;-48
2023/09/11 00:04:45;;;;;;;1.37;0.97;;;;;;;15.45;60.13;93909.41;522162;28;876;-46
2023/09/11 00:05:00;;;;;;;3.00;1.10;;;;;;;15.44;60.19;93903.13;522259;28;810;-47
2023/09/11 00:05:16;;;;;;;4.53;1.27;;;;;;;15.44;60.29;93900.31;522245;28;836;-47
2023/09/11 00:05:31;;;;;;;2.50;1.27;;;;;;;15.43;60.34;93900.88;521994;28;1143;-48
2023/09/11 00:05:48;;;;;;;1.50;1.20;;;;;;;15.43;60.29;93909.22;522255;28;776;-46
2023/09/11 00:06:05;;;;;;;1.58;1.00;;;;;;;15.42;60.59;93900.13;522180;28;1604;-47
2023/09/11 00:06:20;;;;;;;1.63;1.08;;;;;;;15.41;60.71;93897.94;521491;28;1193;-47
2023/09/11 00:06:36;;;;;;;1.27;1.13;;;;;;;15.37;60.88;93890.00;522221;28;1556;-50
2023/09/11 00:06:51;;;;;;;1.30;1.20;;;;;;;15.41;60.91;93898.66;522125;28;856;-46
2023/09/11 00:07:06;;;;;;;1.67;1.40;;;;;;;15.39;60.68;93904.06;522064;28;844;-47
2023/09/11 00:07:22;;;;;;;2.30;1.47;;;;;;;15.39;60.70;93898.50;522508;28;1320;-47
2023/09/11 00:07:37;;;;;;;1.90;1.23;;;;;;;15.39;60.80;93900.53;524164;28;835;-47
2023/09/11 00:07:53;;;;;;;1.63;1.10;;;;;;;15.38;60.77;93899.81;524075;28;904;-46
2023/09/11 00:08:09;;;;;;;1.50;1.10;;;;;;;15.14;60.94;93865.13;524124;28;879;-46
2023/09/11 00:08:24;;;;;;;1.75;1.08;;;;;;;15.38;60.95;93899.06;524010;28;812;-46
2023/09/11 00:08:40;;;;;;;1.93;1.17;;;;;;;15.35;60.85;93894.66;523953;28;836;-46
2023/09/11 00:08:57;;;;;;;1.10;1.00;;;;;;;15.36;61.00;93896.84;524098;28;867;-47
2023/09/11 00:09:13;;;;;;;0.90;0.90;;;;;;;15.37;61.03;93900.38;524164;28;876;-46
2023/09/11 00:09:28;;;;;;;0.90;0.90;;;;;;;15.36;60.87;93901.66;524304;28;895;-46
2023/09/11 00:09:43;;;;;;;1.05;1.00;;;;;;;15.36;60.82;93899.63;524187;28;832;-46
2023/09/11 00:09:59;;;;;;;1.30;1.20;;;;;;;15.36;60.75;93898.88;524332;28;796;-47
2023/09/11 00:10:15;;;;;;;2.40;1.33;;;;;;;15.35;60.88;93900.22;524219;28;871;-48
2023/09/11 00:10:32;;;;;;;2.25;1.27;;;;;;;15.36;61.03;93907.25;524241;28;867;-48
2023/09/11 00:10:47;;;;;;;2.00;1.33;;;;;;;15.35;61.28;93900.22;524281;28;817;-47
2023/09/11 00:11:03;;;;;;;1.80;1.30;;;;;;;15.33;61.36;93898.00;524211;28;923;-46
2023/09/11 00:11:18;;;;;;;1.10;1.00;;;;;;;15.33;61.30;93895.22;524374;28;732;-46
2023/09/11 00:11:34;;;;;;;1.10;1.00;;;;;;;15.33;61.44;93894.47;524136;28;2040;-47
2023/09/11 00:11:49;;;;;;;1.20;1.10;;;;;;;15.33;61.39;93897.25;524244;28;1559;-47
2023/09/11 00:12:05;;;;;;;1.10;1.00;;;;;;;15.33;61.38;93894.47;524270;28;866;-46
2023/09/11 00:12:20;;;;;;;1.83;1.60;;;;;;;15.33;61.29;93900.03;524168;28;884;-46
2023/09/11 00:12:36;;;;;;;3.13;1.65;;;;;;;15.32;61.28;93895.78;524227;28;805;-48
2023/09/11 00:12:51;;;;;;;3.30;1.30;;;;;;;15.29;61.46;93894.16;524309;28;1060;-47
2023/09/11 00:13:07;;;;;;;1.70;1.20;;;;;;;15.31;61.30;93894.31;524312;28;780;-47
2023/09/11 00:13:22;;;;;;;1.42;1.10;;;;;;;15.29;61.49;93894.88;524299;28;853;-46
2023/09/11 00:13:37;;;;;;;1.50;1.00;;;;;;;15.30;61.31;93898.38;524233;28;847;-47
2023/09/11 00:13:53;;;;;;;1.30;0.90;;;;;;;15.30;61.25;93901.16;524213;28;1037;-47
2023/09/11 00:14:08;;;;;;;1.55;0.90;;;;;;;15.28;61.26;93898.97;524216;28;848;-46
2023/09/11 00:14:23;;;;;;;2.30;1.00;;;;;;;15.28;61.27;93901.00;524181;28;800;-47
2023/09/11 00:14:39;;;;;;;2.13;1.00;;;;;;;15.28;61.30;93896.19;524351;28;884;-48
2023/09/11 00:14:54;;;;;;;1.45;1.10;;;;;;;15.27;61.31;93894.69;524245;28;863;-46
2023/09/11 00:15:11;;;;;;;2.77;1.23;;;;;;;15.27;61.14;93897.47;524271;28;893;-46
2023/09/11 00:15:27;;;;;;;3.85;1.38;;;;;;;15.27;60.97;93894.69;524308;28;903;-49
2023/09/11 00:15:42;;;;;;;2.67;1.02;;;;;;;15.28;61.00;93901.00;524229;28;903;-47
2023/09/11 00:15:58;;;;;;;2.40;0.80;;;;;;;15.27;60.79;93897.47;524246;28;1140;-47
2023/09/11 00:16:13;;;;;;;3.23;1.13;;;;;;;15.27;60.68;93896.75;524259;28;1228;-47
2023/09/11 00:16:28;;;;;;;1.90;1.13;;;;;;;15.28;60.50;93901.00;524265;28;855;-46
2023/09/11 00:16:44;;;;;;;1.17;1.07;;;;;;;15.27;60.56;93900.25;524211;28;829;-47
2023/09/11 00:16:59;;;;;;;1.47;1.10;;;;;;;15.27;60.37;93900.25;524332;28;808;-46
2023/09/11 00:17:14;;;;;;;1.77;0.90;;;;;;;15.26;60.21;93896.03;524190;28;853;-48
2023/09/11 00:17:30;;;;;;;1.33;1.00;;;;;;;15.27;60.02;93900.25;524254;28;923;-47
2023/09/11 00:17:45;;;;;;;1.15;1.05;;;;;;;15.27;59.89;93900.25;524162;28;861;-47
2023/09/11 00:18:01;;;;;;;1.83;1.00;;;;;;;15.28;59.75;93898.22;524274;28;839;-48
2023/09/11 00:18:16;;;;;;;2.10;1.20;;;;;;;15.27;59.43;93903.03;524213;28;835;-46
2023/09/11 00:18:31;;;;;;;1.20;1.10;;;;;;;15.28;59.24;93903.78;524266;28;799;-47
2023/09/11 00:18:47;;;;;;;3.53;1.10;;;;;;;15.27;59.29;93902.31;524162;28;768;-46
2023/09/11 00:19:03;;;;;;;3.90;1.10;;;;;;;15.26;59.43;93901.59;524238;28;786;-48
2023/09/11 00:19:18;;;;;;;3.67;1.02;;;;;;;15.27;59.38;93908.59;524293;28;789;-47
2023/09/11 00:19:33;;;;;;;5.40;1.23;;;;;;;15.26;59.36;93903.63;524241;28;752;-47
2023/09/11 00:19:49;;;;;;;3.10;1.30;;;;;;;15.20;59.27;93901.09;524188;28;927;-48
2023/09/11 00:20:10;;;;;;;1.17;1.00;;;;;;;15.25;59.20;93904.91;524167;28;848;-47
2023/09/11 00:20:26;;;;;;;1.60;1.08;;;;;;;15.19;59.31;93900.34;524010;28;1207;-48
2023/09/11 00:20:41;;;;;;;1.53;1.10;;;;;;;15.22;59.34;93901.25;522149;28;884;-46
2023/09/11 00:20:57;;;;;;;1.00;0.90;;;;;;;15.22;59.09;93898.47;522259;28;804;-47
2023/09/11 00:21:13;;;;;;;0.80;0.80;;;;;;;15.23;59.29;93904.75;522208;28;920;-47
2023/09/11 00:21:28;;;;;;;0.67;0.67;;;;;;;15.20;59.31;93903.88;522220;28;957;-45
2023/09/11 00:21:43;;;;;;;0.70;0.70;;;;;;;15.19;59.31;93897.56;522114;28;942;-47
2023/09/11 00:21:59;;;;;;;1.00;0.82;;;;;;;15.18;59.29;93901.63;522265;28;798;-49
2023/09/11 00:22:14;;;;;;;1.10;1.00;;;;;;;15.19;59.58;93902.38;522165;28;760;-46
2023/09/11 00:22:29;;;;;;;1.10;1.00;;;;;;;15.18;59.69;93901.63;522177;28;1093;-46
2023/09/11 00:22:45;;;;;;;1.05;1.00;;;;;;;15.18;59.77;93909.97;522197;28;791;-47
2023/09/11 00:23:00;;;;;;;1.10;1.00;;;;;;;15.18;59.68;93907.19;522175;28;973;-47
2023/09/11 00:23:15;;;;;;;1.10;1.00;;;;;;;15.18;59.92;93909.97;522160;28;776;-47
2023/09/11 00:23:31;;;;;;;2.35;1.08;;;;;;;15.17;59.82;93905.72;522133;28;938;-47
2023/09/11 00:23:46;;;;;;;2.90;1.30;;;;;;;15.17;59.91;93907.78;522120;28;871;-48
2023/09/11 00:24:02;;;;;;;1.40;1.10;;;;;;;15.17;59.88;93908.50;522172;28;780;-46
2023/09/11 00:24:17;;;;;;;1.00;0.90;;;;;;;15.17;59.86;93908.50;522146;28;1566;-46
2023/09/11 00:24:32;;;;;;;1.37;1.20;;;;;;;15.16;59.97;93909.06;522210;28;827;-47
2023/09/11 00:24:48;;;;;;;1.37;1.27;;;;;;;15.16;60.14;93907.03;522215;28;811;-47
2023/09/11 00:25:03;;;;;;;1.30;1.20;;;;;;;15.15;60.12;93905.56;522151;28;1023;-46
2023/09/11 00:25:19;;;;;;;1.40;1.20;;;;;;;15.14;60.23;93906.13;522258;28;820;-47
2023/09/11 00:25:35;;;;;;;1.38;1.08;;;;;;;15.13;60.62;93905.41;522092;28;899;-50
2023/09/11 00:25:50;;;;;;;1.00;0.90;;;;;;;15.12;60.64;93906.69;522233;28;818;-47
2023/09/11 00:26:05;;;;;;;0.90;0.90;;;;;;;15.12;60.68;93901.13;522164;28;828;-48
2023/09/11 00:26:21;;;;;;;1.20;1.10;;;;;;;15.11;60.69;93905.22;522088;28;893;-48
2023/09/11 00:26:36;;;;;;;1.02;1.02;;;;;;;15.11;60.64;93908.00;522129;28;871;-47
2023/09/11 00:26:52;;;;;;;1.00;1.00;;;;;;;15.01;60.73;93890.44;522208;28;799;-47
2023/09/11 00:27:07;;;;;;;2.17;1.10;;;;;;;15.09;60.75;93909.88;522050;28;760;-48
2023/09/11 00:27:22;;;;;;;2.10;0.93;;;;;;;15.08;60.84;93911.16;521963;28;836;-47
2023/09/11 00:27:38;;;;;;;0.90;0.90;;;;;;;15.06;61.08;93905.44;522001;28;966;-47
2023/09/11 00:27:53;;;;;;;1.10;1.00;;;;;;;15.07;61.17;93907.66;521926;28;991;-48
2023/09/11 00:28:08;;;;;;;2.00;1.10;;;;;;;15.07;61.26;93904.16;522023;28;884;-47
2023/09/11 00:28:24;;;;;;;2.47;1.10;;;;;;;15.05;61.31;93910.25;521856;28;880;-46
2023/09/11 00:28:39;;;;;;;2.30;1.23;;;;;;;14.99;61.21;93895.09;522022;28;832;-46
2023/09/11 00:28:55;;;;;;;2.33;1.30;;;;;;;15.04;61.40;93906.00;521964;28;831;-47
2023/09/11 00:29:10;;;;;;;2.23;1.30;;;;;;;15.03;61.23;93904.53;522187;28;768;-47
2023/09/11 00:29:27;;;;;;;2.30;1.17;;;;;;;15.03;61.26;93906.56;522138;28;768;-46
2023/09/11 00:29:42;;;;;;;1.25;0.80;;;;;;;15.03;61.25;93909.34;522176;28;824;-48
2023/09/11 00:29:57;;;;;;;1.15;0.90;;;;;;;15.02;61.24;93911.41;522158;28;899;-50
2023/09/11 00:30:13;;;;;;;2.20;1.10;;;;;;;15.01;61.21;93903.63;522068;28;911;-46
2023/09/11 00:30:28;;;;;;;3.00;1.20;;;;;;;15.00;61.40;93896.59;522051;28;899;-47
2023/09/11 00:30:44;;;;;;;2.30;1.25;;;;;;;15.00;61.45;93908.47;522164;28;780;-46
2023/09/11 00:30:59;;;;;;;1.10;1.03;;;;;;;14.93;61.43;93891.81;522253;28;804;-48
2023/09/11 00:31:14;;;;;;;1.20;1.10;;;;;;;14.99;61.66;93897.88;522145;28;911;-46
2023/09/11 00:31:30;;;;;;;1.17;1.07;;;;;;;14.97;61.58;93901.25;522079;28;1961;-46
2023/09/11 00:31:45;;;;;;;1.10;1.00;;;;;;;14.97;61.58;93897.72;522192;28;799;-47
2023/09/11 00:32:01;;;;;;;1.00;0.90;;;;;;;14.97;61.79;93900.50;522218;28;1050;-46
2023/09/11 00:32:16;;;;;;;0.73;0.73;;;;;;;14.96;61.73;93905.34;522082;28;873;-47
2023/09/11 00:32:32;;;;;;;1.50;1.00;;;;;;;14.96;61.72;93907.38;522215;28;835;-47
2023/09/11 00:32:47;;;;;;;2.00;1.13;;;;;;;14.96;61.93;93904.59;522185;28;827;-47
2023/09/11 00:33:03;;;;;;;1.40;1.23;;;;;;;14.94;61.70;93896.78;522202;28;812;-48
2023/09/11 00:33:18;;;;;;;1.23;1.13;;;;;;;14.94;61.76;93901.66;522163;28;938;-47
2023/09/11 00:33:34;;;;;;;1.33;1.00;;;;;;;14.94;61.80;93901.66;522183;28;828;-46
2023/09/11 00:33:49;;;;;;;1.70;1.17;;;;;;;14.90;61.83;93898.53;522129;28;829;-47
2023/09/11 00:34:05;;;;;;;1.30;1.20;;;;;;;14.93;61.88;93902.94;522202;28;836;-47
2023/09/11 00:34:20;;;;;;;1.27;1.17;;;;;;;14.91;61.81;93903.50;522081;28;761;-47
2023/09/11 00:34:35;;;;;;;1.30;1.03;;;;;;;14.88;61.99;93901.09;522107;28;804;-47
2023/09/11 00:34:51;;;;;;;1.30;1.10;;;;;;;14.85;61.94;93903.00;522169;28;926;-46
2023/09/11 00:35:06;;;;;;;1.33;1.10;;;;;;;14.86;62.06;93907.25;522011;28;828;-47
2023/09/11 00:35:22;;;;;;;1.45;1.00;;;;;;;14.86;62.20;93906.50;521950;28;907;-45
2023/09/11 00:35:37;;;;;;;1.40;1.00;;;;;;;14.84;62.11;93904.28;521998;28;856;-48
2023/09/11 00:35:53;;;;;;;1.27;1.00;;;;;;;14.86;62.07;93900.94;521993;28;855;-47
2023/09/11 00:36:08;;;;;;;0.93;0.90;;;;;;;14.84;62.24;93901.50;521687;28;1510;-46
2023/09/11 00:36:23;;;;;;;1.97;1.10;;;;;;;14.85;62.10;93899.47;521546;28;780;-46
2023/09/11 00:36:39;;;;;;;2.00;1.20;;;;;;;14.86;62.03;93904.47;521727;28;895;-47
2023/09/11 00:36:54;;;;;;;1.17;1.08;;;;;;;14.85;61.95;93900.22;521763;28;851;-47
2023/09/11 00:37:09;;;;;;;1.20;1.10;;;;;;;14.86;61.66;93903.72;522079;28;2374;-47
2023/09/11 00:37:25;;;;;;;1.17;1.03;;;;;;;14.87;61.78;93905.19;522181;28;817;-46
2023/09/11 00:37:40;;;;;;;1.23;1.10;;;;;;;14.85;62.08;93897.44;522138;28;799;-47
2023/09/11 00:37:56;;;;;;;1.20;1.10;;;;;;;14.86;61.99;93907.25;522095;28;914;-48
2023/09/11 00:38:11;;;;;;;1.77;1.00;;;;;;;14.85;62.01;93899.47;522109;28;1002;-46
2023/09/11 00:38:26;;;;;;;2.03;1.00;;;;;;;14.87;61.84;93908.72;521997;28;867;-48
2023/09/11 00:38:42;;;;;;;1.00;0.90;;;;;;;14.86;61.87;93907.25;522152;28;824;-46
2023/09/11 00:38:57;;;;;;;0.90;0.90;;;;;;;14.86;61.88;93907.25;522178;28;784;-46
2023/09/11 00:39:12;;;;;;;1.33;1.02;;;;;;;14.86;61.96;93901.69;522148;28;1224;-46
2023/09/11 00:39:28;;;;;;;1.43;0.90;;;;;;;14.85;61.98;93905.78;522254;28;859;-47
2023/09/11 00:39:43;;;;;;;1.03;0.83;;;;;;;14.85;61.92;93905.03;522054;28;895;-46
2023/09/11 00:39:58;;;;;;;0.73;0.73;;;;;;;14.83;61.78;93899.31;522171;28;832;-48
2023/09/11 00:40:14;;;;;;;0.83;0.83;;;;;;;14.83;61.91;93897.28;522153;28;760;-47
2023/09/11 00:40:29;;;;;;;1.27;1.17;;;;;;;14.83;61.72;93902.81;522114;28;852;-46
2023/09/11 00:40:44;;;;;;;1.17;1.10;;;;;;;14.83;61.83;93905.59;522156;28;788;-46
2023/09/11 00:41:00;;;;;;;1.03;1.03;;;;;;;14.83;61.73;93902.81;522194;28;780;-47
2023/09/11 00:41:15;;;;;;;1.00;1.00;;;;;;;14.84;61.58;93904.28;522116;28;810;-47
2023/09/11 00:41:30;;;;;;;4.03;1.30;;;;;;;14.84;61.71;93897.97;522189;28;764;-47
2023/09/11 00:41:46;;;;;;;6.70;1.33;;;;;;;14.83;61.69;93908.38;522161;28;784;-47
2023/09/11 00:42:01;;;;;;;4.47;1.07;;;;;;;14.82;61.57;93901.34;522172;28;915;-47
2023/09/11 00:42:17;;;;;;;1.90;1.00;;;;;;;14.81;61.48;93904.69;522062;28;846;-48
2023/09/11 00:42:32;;;;;;;1.10;1.00;;;;;;;14.78;61.36;93900.25;522129;28;856;-46
2023/09/11 00:42:47;;;;;;;1.10;0.97;;;;;;;14.74;61.08;93902.69;522163;28;772;-47
2023/09/11 00:43:03;;;;;;;1.42;1.10;;;;;;;14.72;61.67;93908.06;522125;28;851;-46
2023/09/11 00:43:18;;;;;;;2.83;1.27;;;;;;;14.69;61.63;93898.09;522152;28;895;-46
2023/09/11 00:43:33;;;;;;;2.65;1.10;;;;;;;14.69;61.72;93906.41;522067;28;831;-48
2023/09/11 00:43:49;;;;;;;1.20;1.00;;;;;;;14.69;61.54;93907.16;522199;28;844;-47
2023/09/11 00:44:04;;;;;;;1.60;1.00;;;;;;;14.69;61.58;93907.16;522071;28;895;-46
2023/09/11 00:44:20;;;;;;;1.83;1.10;;;;;;;14.70;61.48;93905.13;522059;28;887;-47
2023/09/11 00:44:35;;;;;;;1.20;1.10;;;;;;;14.71;61.58;93904.56;522147;28;766;-47
2023/09/11 00:44:50;;;;;;;1.10;1.00;;;;;;;14.70;61.45;93900.31;522120;28;855;-46
2023/09/11 00:45:06;;;;;;;1.15;1.05;;;;;;;14.70;61.57;93900.31;522101;28;801;-47
2023/09/11 00:45:21;;;;;;;3.60;1.20;;;;;;;14.69;61.47;93898.81;522119;28;1118;-47
2023/09/11 00:45:37;;;;;;;4.25;1.27;;;;;;;14.70;61.56;93897.53;522187;28;781;-47
2023/09/11 00:45:55;;;;;;;1.50;1.07;;;;;;;14.70;61.63;93897.53;521903;28;868;-48
2023/09/11 00:46:10;;;;;;;1.00;0.90;;;;;;;14.70;61.75;93899.56;522010;28;1146;-46
2023/09/11 00:46:26;;;;;;;2.47;1.00;;;;;;;14.70;61.65;93900.31;519842;28;974;-47
2023/09/11 00:46:41;;;;;;;2.65;1.20;;;;;;;14.71;61.66;93899.00;519916;28;1247;-46
2023/09/11 00:46:57;;;;;;;1.27;1.17;;;;;;;14.70;61.51;93897.53;519913;28;845;-47
2023/09/11 00:47:13;;;;;;;1.27;1.17;;;;;;;14.71;61.44;93898.25;517874;28;923;-46
2023/09/11 00:47:28;;;;;;;1.30;1.20;;;;;;;14.71;61.43;93899.00;517879;28;928;-46
2023/09/11 00:47:45;;;;;;;1.30;1.20;;;;;;;14.73;61.47;93901.94;518578;28;823;-47
2023/09/11 00:48:01;;;;;;;1.20;1.10;;;;;;;14.71;61.83;93899.00;519917;28;858;-48
2023/09/11 00:48:17;;;;;;;1.52;1.23;;;;;;;14.73;61.75;93899.16;520512;28;860;-46
2023/09/11 00:48:32;;;;;;;1.52;1.25;;;;;;;14.73;61.62;93901.94;521975;28;1047;-48
2023/09/11 00:48:52;;;;;;;1.30;1.20;;;;;;;14.74;61.69;93902.69;521970;28;814;-48
2023/09/11 00:49:08;;;;;;;1.30;1.20;;;;;;;14.73;61.75;93903.97;521098;28;1108;-46
2023/09/11 00:49:23;;;;;;;1.30;1.20;;;;;;;14.73;61.77;93906.75;521940;28;864;-46
2023/09/11 00:49:39;;;;;;;1.10;1.00;;;;;;;14.72;61.78;93902.53;522038;28;871;-48
2023/09/11 00:49:55;;;;;;;1.67;1.17;;;;;;;14.72;61.77;93897.72;519860;28;993;-46
2023/09/11 00:50:11;;;;;;;1.58;1.15;;;;;;;14.70;61.78;93905.88;517848;28;1154;-46
2023/09/11 00:50:26;;;;;;;1.20;1.10;;;;;;;14.54;61.88;93873.16;517838;28;860;-46
2023/09/11 00:50:44;;;;;;;1.23;1.13;;;;;;;14.70;61.79;93903.09;517833;28;1031;-47
2023/09/11 00:50:59;;;;;;;1.20;1.10;;;;;;;14.69;61.85;93900.84;518760;28;937;-46
2023/09/11 00:51:15;;;;;;;1.20;1.10;;;;;;;14.68;61.78;93897.38;519892;28;891;-46
2023/09/11 00:51:30;;;;;;;1.00;1.00;;;;;;;14.69;61.89;93903.63;519822;28;1914;-46
2023/09/11 00:51:46;;;;;;;1.30;1.20;;;;;;;14.69;62.15;93896.03;520590;28;850;-47
2023/09/11 00:52:02;;;;;;;2.13;1.10;;;;;;;14.68;62.02;93900.16;522040;28;847;-47
2023/09/11 00:52:17;;;;;;;1.90;0.90;;;;;;;14.67;61.82;93895.13;522102;28;875;-47
2023/09/11 00:52:33;;;;;;;1.00;1.00;;;;;;;14.62;62.01;93887.75;522004;28;792;-49
2023/09/11 00:52:49;;;;;;;2.90;1.10;;;;;;;14.64;61.94;93896.28;519914;28;832;-47
2023/09/11 00:53:06;;;;;;;2.90;1.10;;;;;;;14.66;62.06;93897.16;519867;28;820;-46
2023/09/11 00:53:21;;;;;;;1.10;1.00;;;;;;;14.65;61.96;93895.69;519926;28;949;-47
2023/09/11 00:53:37;;;;;;;5.87;1.27;;;;;;;14.64;62.04;93897.00;519837;28;844;-47
2023/09/11 00:53:53;;;;;;;8.65;1.30;;;;;;;14.65;62.07;93898.47;517810;28;847;-47
2023/09/11 00:54:09;;;;;;;4.00;1.20;;;;;;;14.50;62.16;93875.59;517785;28;880;-47
2023/09/11 00:54:25;;;;;;;1.27;1.17;;;;;;;14.64;62.22;93897.00;520553;28;927;-47
2023/09/11 00:54:41;;;;;;;0.98;0.90;;;;;;;14.63;62.05;93892.75;522839;28;891;-48
2023/09/11 00:54:56;;;;;;;1.13;1.03;;;;;;;14.53;62.10;93883.53;524064;28;823;-46
2023/09/11 00:55:12;;;;;;;1.45;1.05;;;;;;;14.63;62.28;93892.00;521977;28;843;-48
2023/09/11 00:55:28;;;;;;;1.93;1.10;;;;;;;14.61;62.17;93894.63;521950;28;838;-47
2023/09/11 00:55:45;;;;;;;1.40;1.10;;;;;;;14.63;62.29;93895.53;522605;28;780;-46
2023/09/11 00:56:01;;;;;;;1.05;1.05;;;;;;;14.63;62.35;93898.31;524026;28;848;-46
2023/09/11 00:56:16;;;;;;;1.40;1.30;;;;;;;14.64;62.59;93901.84;521100;28;859;-48
2023/09/11 00:56:31;;;;;;;1.30;1.20;;;;;;;14.64;62.30;93901.84;519889;28;852;-47
2023/09/11 00:56:48;;;;;;;1.20;1.08;;;;;;;14.64;62.35;93897.00;517839;28;1127;-48
2023/09/11 00:57:03;;;;;;;1.42;1.13;;;;;;;14.64;62.35;93901.84;518560;28;844;-46
2023/09/11 00:57:19;;;;;;;1.13;1.10;;;;;;;14.64;62.25;93899.78;517818;28;1201;-47
2023/09/11 00:57:34;;;;;;;1.05;0.98;;;;;;;14.64;62.18;93899.78;517824;28;869;-47
2023/09/11 00:57:50;;;;;;;1.17;1.08;;;;;;;14.65;62.32;93892.91;517833;28;872;-47
2023/09/11 00:58:06;;;;;;;1.33;1.20;;;;;;;14.65;62.30;93901.25;518351;28;852;-48
2023/09/11 00:58:22;;;;;;;1.23;1.13;;;;;;;14.65;62.26;93897.75;519866;28;875;-46
2023/09/11 00:58:37;;;;;;;1.10;1.00;;;;;;;14.64;62.33;93896.28;519876;28;950;-46
2023/09/11 00:58:52;;;;;;;1.13;0.90;;;;;;;14.64;62.25;93896.28;519777;28;864;-46
2023/09/11 00:59:08;;;;;;;1.65;0.88;;;;;;;14.63;62.25;93901.09;520278;28;858;-46
2023/09/11 00:59:24;;;;;;;3.20;1.07;;;;;;;14.64;62.01;93902.56;520321;28;812;-46
2023/09/11 00:59:39;;;;;;;2.70;1.10;;;;;;;14.64;62.15;93899.78;522005;28;749;-47
2023/09/11 00:59:54;;;;;;;1.23;1.13;;;;;;;14.63;62.00;93895.53;521915;28;796;-46
2023/09/11 01:00:12;;;;;;;1.20;1.10;;;;;;;14.63;61.86;93898.31;521919;28;1309;-47
2023/09/11 01:00:28;;;;;;;1.05;1.00;;;;;;;14.63;61.79;93901.09;519803;28;1221;-46
2023/09/11 01:00:47;;;;;;;1.30;1.10;;;;;;;14.62;61.89;93896.81;519779;28;1296;-46
2023/09/11 01:01:02;;;;;;;3.22;1.20;;;;;;;14.62;61.75;93894.03;519792;28;913;-46
2023/09/11 01:01:19;;;;;;;3.63;1.17;;;;;;;14.50;61.60;93873.56;521098;28;860;-47
2023/09/11 01:01:35;;;;;;;1.40;0.88;;;;;;;14.52;61.41;93875.75;519869;28;872;-48
2023/09/11 01:01:51;;;;;;;0.75;0.75;;;;;;;14.61;61.43;93892.59;519905;28;881;-47
2023/09/11 01:02:07;;;;;;;0.90;0.90;;;;;;;14.62;61.34;93896.09;519842;28;850;-47
2023/09/11 01:02:22;;;;;;;2.10;1.10;;;;;;;14.59;61.02;93895.19;517744;28;1029;-47
2023/09/11 01:02:38;;;;;;;2.30;1.20;;;;;;;14.55;61.09;93897.63;515858;28;836;-48
2023/09/11 01:02:53;;;;;;;1.23;1.13;;;;;;;14.51;61.25;93891.69;515805;28;1075;-47
2023/09/11 01:03:08;;;;;;;1.23;1.15;;;;;;;14.48;61.33;93892.84;516428;28;832;-47
2023/09/11 01:03:24;;;;;;;1.10;1.00;;;;;;;14.45;61.31;93896.72;518185;28;849;-47
2023/09/11 01:03:39;;;;;;;1.13;1.00;;;;;;;14.38;61.35;93886.38;519894;28;873;-47
2023/09/11 01:03:55;;;;;;;2.40;1.10;;;;;;;14.42;61.46;93887.47;517922;28;832;-46
2023/09/11 01:04:10;;;;;;;2.50;1.17;;;;;;;14.41;61.29;93888.78;518046;28;876;-47
2023/09/11 01:04:26;;;;;;;1.67;1.30;;;;;;;14.43;61.41;93888.97;518067;28;929;-47
2023/09/11 01:04:41;;;;;;;1.50;1.17;;;;;;;14.44;61.38;93896.00;519879;28;981;-47
2023/09/11 01:04:58;;;;;;;2.40;1.30;;;;;;;14.44;61.42;93895.28;519914;28;1014;-47
2023/09/11 01:05:14;;;;;;;2.58;1.35;;;;;;;14.47;61.45;93898.97;517798;28;825;-48
2023/09/11 01:05:30;;;;;;;1.60;1.00;;;;;;;14.48;61.51;93889.31;517750;28;1308;-47
2023/09/11 01:05:46;;;;;;;0.88;0.88;;;;;;;14.48;61.47;93890.06;518576;28;828;-48
2023/09/11 01:06:04;;;;;;;1.27;1.00;;;;;;;14.48;61.42;93890.06;519838;28;906;-48
2023/09/11 01:06:21;;;;;;;1.45;1.08;;;;;;;14.50;61.53;93886.72;520646;28;1181;-47
2023/09/11 01:06:37;;;;;;;2.03;1.27;;;;;;;14.50;61.29;93892.25;521941;28;949;-47
2023/09/11 01:06:52;;;;;;;1.87;1.30;;;;;;;14.50;61.34;93890.22;521917;28;855;-46
2023/09/11 01:07:07;;;;;;;4.30;1.20;;;;;;;14.50;61.45;93887.44;521998;28;876;-48
2023/09/11 01:07:23;;;;;;;4.50;1.27;;;;;;;14.51;61.26;93883.34;522663;28;1178;-46
2023/09/11 01:07:38;;;;;;;2.53;1.17;;;;;;;14.51;61.35;93891.69;524198;28;866;-47
2023/09/11 01:07:54;;;;;;;1.98;1.02;;;;;;;14.50;61.12;93884.69;524069;28;776;-46
2023/09/11 01:08:09;;;;;;;0.90;0.90;;;;;;;14.50;61.17;93893.00;524211;28;813;-47
2023/09/11 01:08:25;;;;;;;1.15;0.93;;;;;;;14.52;61.08;93895.97;524147;28;857;-46
2023/09/11 01:08:40;;;;;;;1.53;1.10;;;;;;;14.49;60.97;93885.25;524112;28;1052;-47
2023/09/11 01:08:56;;;;;;;1.80;1.20;;;;;;;14.51;61.00;93888.19;521905;28;789;-46
2023/09/11 01:09:11;;;;;;;1.92;1.20;;;;;;;14.53;60.96;93891.16;523913;28;1008;-46
2023/09/11 01:09:27;;;;;;;1.60;1.27;;;;;;;14.52;61.02;93893.19;524023;28;875;-49
2023/09/11 01:09:42;;;;;;;1.33;1.13;;;;;;;14.51;60.99;93894.47;524001;28;836;-47
2023/09/11 01:09:58;;;;;;;1.80;1.10;;;;;;;14.52;60.93;93889.66;524015;28;840;-47
2023/09/11 01:10:13;;;;;;;1.20;0.90;;;;;;;14.52;61.03;93886.88;523934;28;806;-47
2023/09/11 01:10:28;;;;;;;0.60;0.60;;;;;;;14.52;61.17;93892.44;521875;28;829;-46
2023/09/11 01:10:44;;;;;;;1.50;0.90;;;;;;;14.52;61.02;93889.66;520539;28;887;-46
2023/09/11 01:10:59;;;;;;;1.90;1.07;;;;;;;14.52;61.07;93893.19;523649;28;898;-46
2023/09/11 01:11:15;;;;;;;1.70;1.03;;;;;;;14.49;61.02;93885.97;521972;28;864;-48
2023/09/11 01:11:30;;;;;;;2.33;1.20;;;;;;;14.50;61.19;93883.94;521844;28;1918;-46
2023/09/11 01:11:45;;;;;;;1.90;1.20;;;;;;;14.50;61.30;93883.94;521870;28;1162;-46
2023/09/11 01:12:01;;;;;;;1.43;1.00;;;;;;;14.51;61.35;93890.97;521934;28;871;-46
2023/09/11 01:12:16;;;;;;;1.90;1.00;;;;;;;14.50;61.27;93890.22;522142;28;824;-47
2023/09/11 01:12:35;;;;;;;2.53;1.07;;;;;;;14.50;61.42;93881.91;524037;28;826;-47
2023/09/11 01:12:50;;;;;;;2.88;1.13;;;;;;;14.51;61.10;93886.13;524150;28;876;-47
2023/09/11 01:13:05;;;;;;;1.73;1.20;;;;;;;14.51;61.18;93877.09;523950;28;871;-47
2023/09/11 01:13:21;;;;;;;1.50;1.10;;;;;;;14.50;60.99;93881.16;523999;28;843;-47
2023/09/11 01:13:37;;;;;;;1.60;1.08;;;;;;;14.48;61.24;93883.75;523923;28;848;-46
2023/09/11 01:13:52;;;;;;;1.60;1.20;;;;;;;14.48;61.20;93878.19;524031;28;843;-46
2023/09/11 01:14:08;;;;;;;1.43;1.27;;;;;;;14.47;61.05;93883.00;524064;28;829;-46
2023/09/11 01:14:23;;;;;;;1.30;1.20;;;;;;;14.46;60.80;93886.38;523752;28;863;-48
2023/09/11 01:14:39;;;;;;;1.10;1.00;;;;;;;14.45;60.82;93880.06;523979;28;872;-47
2023/09/11 01:14:54;;;;;;;0.82;0.82;;;;;;;14.46;60.83;93886.38;523938;28;833;-48
2023/09/11 01:15:10;;;;;;;1.13;1.03;;;;;;;14.36;60.83;93870.28;523949;28;1578;-46
2023/09/11 01:15:27;;;;;;;1.17;1.08;;;;;;;14.46;61.06;93886.38;524049;28;804;-46
2023/09/11 01:16:10;;;;;;;1.10;1.02;;;;;;;14.45;60.92;93888.41;521834;28;879;-47
2023/09/11 01:16:32;;;;;;;1.20;1.10;;;;;;;14.46;61.10;93883.59;521831;28;853;-47
2023/09/11 01:17:13;;;;;;;1.20;1.10;;;;;;;14.42;61.30;93881.91;521946;28;869;-46